Time;durP1;ratioP1;P1;durP2;ratioP2;P2;SDS_P1;SDS_P2;PMS_P1;PMS_P2;Temp;Humidity;BMP_temperature;BMP_pressure;BME280_temperature;BME280_humidity;BME280_pressure;Samples;Min_cycle;Max_cycle;Signal;HPM_P1;HPM_P2
2021/06/15 00:00:26;;;;;;;13.32;8.20;;;21.80;79.40;;;;;;5074221;28;20024;-82
2021/06/15 00:02:52;;;;;;;13.05;8.00;;;21.70;79.60;;;;;;5074381;28;20082;-82
2021/06/15 00:05:18;;;;;;;12.65;8.13;;;21.70;80.30;;;;;;5074911;28;20021;-82
2021/06/15 00:07:44;;;;;;;15.35;8.82;;;21.80;79.70;;;;;;5074595;28;20013;-82
2021/06/15 00:10:21;;;;;;;13.27;8.82;;;21.70;79.90;;;;;;5072990;28;20055;-82
2021/06/15 00:12:48;;;;;;;15.70;9.57;;;21.60;80.30;;;;;;5076321;28;20025;-82
2021/06/15 00:15:15;;;;;;;16.08;8.70;;;21.60;80.70;;;;;;5068894;28;20106;-82
2021/06/15 00:17:41;;;;;;;21.83;9.30;;;21.60;81.40;;;;;;5068431;28;20021;-81
2021/06/15 00:20:08;;;;;;;17.00;9.63;;;21.50;81.20;;;;;;5067426;28;20512;-81
2021/06/15 00:22:34;;;;;;;14.10;9.27;;;21.50;81.40;;;;;;5067795;28;20036;-81
2021/06/15 00:24:59;;;;;;;16.55;9.15;;;21.50;81.70;;;;;;5067278;28;20032;-81
2021/06/15 00:27:28;;;;;;;17.52;9.65;;;21.50;82.00;;;;;;5073647;28;20423;-82
2021/06/15 00:29:54;;;;;;;17.05;9.98;;;21.50;82.20;;;;;;5076546;28;20082;-80
2021/06/15 00:32:19;;;;;;;18.63;10.63;;;21.40;82.80;;;;;;5076969;28;20033;-82
2021/06/15 00:34:45;;;;;;;19.10;11.07;;;21.40;83.20;;;;;;5065917;28;20470;-81
2021/06/15 00:37:11;;;;;;;17.33;10.57;;;21.40;83.30;;;;;;5062725;28;20029;-81
2021/06/15 00:39:37;;;;;;;17.23;10.38;;;21.30;83.70;;;;;;5062631;28;20068;-82
2021/06/15 00:42:05;;;;;;;19.63;11.10;;;21.30;83.80;;;;;;5062799;28;20117;-80
2021/06/15 00:44:32;;;;;;;16.65;11.27;;;21.30;84.10;;;;;;5061003;28;20029;-82
2021/06/15 00:46:57;;;;;;;17.50;10.68;;;21.30;84.30;;;;;;5062307;28;20066;-82
2021/06/15 00:49:26;;;;;;;22.02;12.07;;;21.30;84.40;;;;;;5061351;28;20093;-80
2021/06/15 00:51:56;;;;;;;18.05;10.68;;;21.30;84.70;;;;;;5064355;28;20036;-82
2021/06/15 00:54:23;;;;;;;20.33;10.85;;;21.30;85.00;;;;;;5063394;28;20021;-81
2021/06/15 00:56:49;;;;;;;20.45;11.60;;;21.30;85.40;;;;;;5065297;28;20595;-81
2021/06/15 00:59:15;;;;;;;17.00;10.75;;;21.20;85.40;;;;;;5064470;28;20116;-80
2021/06/15 01:01:41;;;;;;;18.10;11.35;;;21.30;85.70;;;;;;5063564;28;20037;-81
2021/06/15 01:04:07;;;;;;;17.38;11.82;;;21.20;85.90;;;;;;5062905;28;20032;-80
2021/06/15 01:06:56;;;;;;;16.27;10.93;;;21.20;86.30;;;;;;5062178;28;20033;-80
2021/06/15 01:09:29;;;;;;;16.15;11.45;;;21.10;87.30;;;;;;5063811;28;20052;-81
2021/06/15 01:12:11;;;;;;;15.32;10.73;;;21.10;87.30;;;;;;5064077;28;20036;-81
2021/06/15 01:14:48;;;;;;;19.00;11.20;;;21.00;87.70;;;;;;5061118;28;20029;-81
2021/06/15 01:17:34;;;;;;;20.95;12.20;;;21.00;88.00;;;;;;5058983;28;20315;-81
2021/06/15 01:20:11;;;;;;;18.02;11.60;;;20.90;88.40;;;;;;5059309;28;20024;-81
2021/06/15 01:23:14;;;;;;;17.80;12.15;;;21.00;88.60;;;;;;5061748;28;20033;-81
2021/06/15 01:26:08;;;;;;;19.90;13.23;;;21.00;88.30;;;;;;5058881;28;20058;-80
2021/06/15 01:28:42;;;;;;;21.40;13.10;;;20.90;88.90;;;;;;5063029;28;20025;-80
2021/06/15 01:31:22;;;;;;;24.70;17.60;;;20.90;89.20;;;;;;5060555;28;20050;-81
2021/06/15 01:33:52;;;;;;;21.90;15.40;;;20.90;89.60;;;;;;5063183;28;20382;-81
2021/06/15 01:36:20;;;;;;;23.05;16.17;;;20.80;90.20;;;;;;5062621;28;20515;-81
2021/06/15 01:38:52;;;;;;;21.60;13.70;;;20.80;90.10;;;;;;5063765;28;20036;-81
2021/06/15 01:41:25;;;;;;;20.15;13.73;;;20.80;90.20;;;;;;5062593;28;20051;-81
2021/06/15 01:43:57;;;;;;;22.40;14.52;;;20.80;90.30;;;;;;5060791;28;20025;-81
2021/06/15 01:46:26;;;;;;;24.63;13.45;;;20.70;90.40;;;;;;5059354;28;20063;-81
2021/06/15 01:48:57;;;;;;;;;;;20.80;90.50;;;;;;5062167;28;20021;-81
2021/06/15 01:51:24;;;;;;;22.20;13.80;;;20.70;90.70;;;;;;5061654;28;20219;-81
2021/06/15 01:53:57;;;;;;;24.92;15.20;;;20.70;90.70;;;;;;5060032;28;20133;-81
2021/06/15 01:56:26;;;;;;;22.70;14.55;;;20.70;90.90;;;;;;5060364;28;20033;-81
2021/06/15 01:58:55;;;;;;;21.27;14.82;;;20.60;91.00;;;;;;5061216;28;20513;-83
2021/06/15 02:01:22;;;;;;;20.25;13.88;;;20.60;91.10;;;;;;5059903;28;20024;-82
2021/06/15 02:03:51;;;;;;;23.02;14.43;;;20.60;91.20;;;;;;5057538;28;20048;-81
2021/06/15 02:06:20;;;;;;;;;;;20.60;91.30;;;;;;5059893;28;20017;-80
2021/06/15 02:08:47;;;;;;;;;;;20.60;91.40;;;;;;5059730;28;19916;-81
2021/06/15 02:11:13;;;;;;;22.60;15.65;;;20.60;91.40;;;;;;5060495;28;19916;-80
2021/06/15 02:13:44;;;;;;;22.33;15.20;;;20.60;91.50;;;;;;5059778;28;20521;-80
2021/06/15 02:16:11;;;;;;;22.35;15.70;;;20.60;91.60;;;;;;5054349;28;20025;-81
2021/06/15 02:18:37;;;;;;;22.00;15.23;;;20.50;91.70;;;;;;5053772;28;20063;-82
2021/06/15 02:21:09;;;;;;;20.05;15.93;;;20.40;91.90;;;;;;5052471;28;20047;-82
2021/06/15 02:23:36;;;;;;;24.58;15.70;;;20.40;92.10;;;;;;5052319;28;20032;-83
2021/06/15 02:26:08;;;;;;;25.60;15.50;;;20.30;92.20;;;;;;5053811;28;20112;-83
2021/06/15 02:28:35;;;;;;;23.40;15.45;;;20.30;92.50;;;;;;5053129;28;20087;-81
2021/06/15 02:31:02;;;;;;;26.30;15.65;;;20.10;93.00;;;;;;5053427;28;20017;-82
2021/06/15 02:33:33;;;;;;;23.02;15.27;;;20.20;92.90;;;;;;5054398;28;20044;-81
2021/06/15 02:36:03;;;;;;;24.52;15.65;;;20.20;92.90;;;;;;5054322;28;20025;-83
2021/06/15 02:38:37;;;;;;;19.30;14.63;;;20.30;92.90;;;;;;5053914;28;20559;-83
2021/06/15 02:41:10;;;;;;;23.10;15.15;;;20.30;92.70;;;;;;5052994;28;20374;-82
2021/06/15 02:43:39;;;;;;;24.13;15.95;;;20.30;92.70;;;;;;5070668;23;20075;-84
2021/06/15 02:46:08;;;;;;;23.70;15.13;;;20.10;93.10;;;;;;5065083;28;20021;-84
2021/06/15 02:48:36;;;;;;;22.70;15.38;;;20.10;93.10;;;;;;5069102;28;20017;-83
2021/06/15 02:51:03;;;;;;;22.02;14.88;;;20.20;93.10;;;;;;5069668;28;20017;-83
2021/06/15 02:53:46;;;;;;;19.50;14.85;;;20.20;93.20;;;;;;5068201;28;20029;-84
2021/06/15 02:56:17;;;;;;;20.50;14.75;;;20.20;93.20;;;;;;5068306;28;20064;-83
2021/06/15 02:58:44;;;;;;;24.70;14.68;;;20.20;93.10;;;;;;5067674;28;20459;-84
2021/06/15 03:01:10;;;;;;;25.00;14.40;;;20.10;93.40;;;;;;5067194;28;20021;-83
2021/06/15 03:03:37;;;;;;;23.20;14.57;;;20.10;93.40;;;;;;5068479;28;20029;-83
2021/06/15 03:06:06;;;;;;;19.58;14.02;;;20.00;93.50;;;;;;5065718;28;20096;-83
2021/06/15 03:08:33;;;;;;;25.08;15.20;;;20.00;93.90;;;;;;5066825;28;20110;-83
2021/06/15 03:11:04;;;;;;;21.65;15.02;;;20.00;93.50;;;;;;5066742;28;20081;-83
2021/06/15 03:13:56;;;;;;;26.33;14.32;;;20.00;93.60;;;;;;5067718;28;20053;-84
2021/06/15 03:16:29;;;;;;;23.05;14.52;;;20.00;93.50;;;;;;5067628;28;20033;-83
2021/06/15 03:19:02;;;;;;;23.23;14.48;;;20.00;93.50;;;;;;5066960;28;20071;-83
2021/06/15 03:21:32;;;;;;;23.25;15.15;;;20.00;93.70;;;;;;5067283;28;20028;-83
2021/06/15 03:24:02;;;;;;;19.95;14.52;;;20.00;93.60;;;;;;5064914;28;20124;-83
2021/06/15 03:26:32;;;;;;;20.52;14.40;;;20.00;93.70;;;;;;5066058;28;20488;-83
2021/06/15 03:29:01;;;;;;;23.67;15.45;;;20.00;93.90;;;;;;5064653;28;20024;-83
2021/06/15 03:31:32;;;;;;;24.65;16.27;;;19.90;93.90;;;;;;5065906;28;20021;-83
2021/06/15 03:34:00;;;;;;;24.30;15.40;;;19.90;94.30;;;;;;5065399;28;20037;-83
2021/06/15 03:36:26;;;;;;;23.58;14.95;;;19.90;93.90;;;;;;5063964;28;20077;-83
2021/06/15 03:38:56;;;;;;;22.60;13.70;;;19.90;94.00;;;;;;5062706;28;20033;-84
2021/06/15 03:41:23;;;;;;;21.63;14.30;;;19.90;94.00;;;;;;5062891;28;20029;-83
2021/06/15 03:43:52;;;;;;;23.15;15.02;;;19.90;94.00;;;;;;5063300;28;20032;-83
2021/06/15 03:46:21;;;;;;;21.90;14.63;;;19.80;94.20;;;;;;5063213;28;20044;-83
2021/06/15 03:48:49;;;;;;;23.25;14.25;;;19.90;94.20;;;;;;5064755;28;20028;-83
2021/06/15 03:51:28;;;;;;;20.23;14.37;;;19.80;94.20;;;;;;5066454;28;20116;-84
2021/06/15 03:54:06;;;;;;;20.85;13.65;;;19.80;94.30;;;;;;5067565;28;20343;-83
2021/06/15 03:56:38;;;;;;;20.88;14.93;;;19.80;94.30;;;;;;5065274;28;20029;-83
2021/06/15 03:59:07;;;;;;;22.83;14.32;;;19.80;94.30;;;;;;5065291;28;20089;-86
2021/06/15 04:01:39;;;;;;;20.40;14.40;;;19.80;94.80;;;;;;5050623;28;20029;-85
2021/06/15 04:04:09;;;;;;;21.17;14.35;;;19.80;94.30;;;;;;5052987;28;20048;-86
2021/06/15 04:06:37;;;;;;;26.92;14.32;;;19.80;94.50;;;;;;5050282;28;20029;-84
2021/06/15 04:09:05;;;;;;;21.45;13.93;;;19.70;94.70;;;;;;5050676;28;20033;-85
2021/06/15 04:11:34;;;;;;;21.30;13.75;;;19.70;94.70;;;;;;5053271;28;20075;-83
2021/06/15 04:14:02;;;;;;;19.65;13.25;;;19.70;94.60;;;;;;5053430;28;20036;-83
2021/06/15 04:16:28;;;;;;;19.80;12.85;;;19.70;94.50;;;;;;5053300;28;20049;-84
2021/06/15 04:19:00;;;;;;;18.50;12.63;;;19.80;94.30;;;;;;5054926;28;20406;-83
2021/06/15 04:21:27;;;;;;;16.98;12.30;;;19.70;94.50;;;;;;5053066;28;20424;-86
2021/06/15 04:24:06;;;;;;;26.63;13.73;;;19.70;94.60;;;;;;5052290;28;20086;-86
2021/06/15 04:26:34;;;;;;;21.35;12.88;;;19.50;94.90;;;;;;5052274;28;20025;-89
2021/06/15 04:29:02;;;;;;;18.60;12.03;;;19.60;95.10;;;;;;5054380;28;20385;-84
2021/06/15 04:31:30;;;;;;;19.48;12.30;;;19.60;94.90;;;;;;5053647;28;20268;-84
2021/06/15 04:33:58;;;;;;;19.30;12.63;;;19.60;94.70;;;;;;5053394;28;20041;-84
2021/06/15 04:36:24;;;;;;;19.48;11.88;;;19.60;94.90;;;;;;5054634;28;20024;-85
2021/06/15 04:39:18;;;;;;;20.05;12.85;;;19.60;94.90;;;;;;5054006;28;20337;-85
2021/06/15 04:41:56;;;;;;;22.23;12.45;;;19.60;94.90;;;;;;5054958;28;20029;-84
2021/06/15 04:44:26;;;;;;;20.53;12.00;;;19.60;94.70;;;;;;5055077;28;20029;-84
2021/06/15 04:46:58;;;;;;;19.73;12.05;;;19.60;94.80;;;;;;5055796;28;20260;-85
2021/06/15 04:49:44;;;;;;;22.00;12.13;;;19.60;94.70;;;;;;5058196;28;20013;-85
2021/06/15 04:52:13;;;;;;;20.92;12.18;;;19.60;94.90;;;;;;5055007;28;20112;-85
2021/06/15 04:54:41;;;;;;;18.75;11.40;;;19.50;95.10;;;;;;5054303;28;20453;-84
2021/06/15 04:57:13;;;;;;;18.83;11.05;;;19.60;95.00;;;;;;5052417;28;20116;-87
2021/06/15 04:59:41;;;;;;;19.45;12.18;;;19.70;94.70;;;;;;5053696;28;20029;-88
2021/06/15 05:02:07;;;;;;;15.90;10.75;;;19.10;95.20;;;;;;5052246;28;20400;-85
2021/06/15 05:04:35;;;;;;;17.23;10.35;;;19.20;95.40;;;;;;5052619;28;20017;-86
2021/06/15 05:07:02;;;;;;;17.98;10.65;;;19.20;95.10;;;;;;5056848;28;20101;-86
2021/06/15 05:09:30;;;;;;;17.50;10.63;;;19.20;94.90;;;;;;5054788;28;20028;-86
2021/06/15 05:11:57;;;;;;;15.10;10.50;;;19.30;94.70;;;;;;5054552;28;20028;-86
2021/06/15 05:14:28;;;;;;;15.57;9.98;;;19.40;94.60;;;;;;5055388;28;20139;-86
2021/06/15 05:16:55;;;;;;;17.65;10.70;;;19.50;94.60;;;;;;5055300;28;20163;-87
2021/06/15 05:19:24;;;;;;;16.35;10.02;;;19.50;94.50;;;;;;5056756;28;20033;-86
2021/06/15 05:22:04;;;;;;;19.77;10.85;;;19.60;94.40;;;;;;5055756;28;20032;-86
2021/06/15 05:24:31;;;;;;;19.00;10.50;;;19.60;94.50;;;;;;5057354;28;20024;-86
2021/06/15 05:26:58;;;;;;;20.88;10.48;;;19.70;94.20;;;;;;5055739;28;20072;-89
2021/06/15 05:29:24;;;;;;;15.93;10.45;;;19.70;94.10;;;;;;5052559;28;20021;-89
2021/06/15 05:31:49;;;;;;;15.57;9.48;;;19.70;94.20;;;;;;5052176;28;20072;-88
2021/06/15 05:34:15;;;;;;;18.23;11.30;;;19.80;94.10;;;;;;5053472;28;20092;-85
2021/06/15 05:36:42;;;;;;;16.63;10.00;;;19.70;94.20;;;;;;5054881;28;20029;-86
2021/06/15 05:39:07;;;;;;;16.88;10.25;;;19.80;93.90;;;;;;5056400;28;20040;-87
2021/06/15 05:41:33;;;;;;;16.50;9.82;;;19.80;93.80;;;;;;5050942;28;20102;-87
2021/06/15 05:43:59;;;;;;;17.58;10.20;;;19.80;94.00;;;;;;5052345;28;20082;-87
2021/06/15 05:46:24;;;;;;;18.67;9.55;;;19.90;94.00;;;;;;5050660;28;20028;-88
2021/06/15 05:48:50;;;;;;;15.75;9.98;;;19.90;94.10;;;;;;5052351;28;20025;-90
2021/06/15 05:51:16;;;;;;;15.75;9.73;;;19.90;93.90;;;;;;5050617;28;20025;-90
2021/06/15 05:53:41;;;;;;;22.50;10.98;;;20.00;93.90;;;;;;5050717;28;20524;-86
2021/06/15 05:56:07;;;;;;;15.48;9.93;;;20.00;93.90;;;;;;5052113;28;20099;-87
2021/06/15 05:58:33;;;;;;;15.10;9.10;;;20.10;93.90;;;;;;5050928;28;20123;-87
2021/06/15 06:00:58;;;;;;;17.92;10.18;;;20.00;93.70;;;;;;5050546;28;20497;-87
2021/06/15 06:03:33;;;;;;;14.93;9.98;;;20.10;93.60;;;;;;5052399;28;20036;-88
2021/06/15 06:08:43;;;;;;;18.10;10.05;;;20.20;93.40;;;;;;5052355;28;20143;-87
2021/06/15 06:11:09;;;;;;;17.33;9.95;;;20.20;93.30;;;;;;5052719;28;20024;-89
2021/06/15 06:13:35;;;;;;;15.93;9.25;;;20.10;93.20;;;;;;5050455;28;20036;-89
2021/06/15 06:16:05;;;;;;;16.02;9.40;;;20.20;93.10;;;;;;5052257;28;20036;-85
2021/06/15 06:18:33;;;;;;;15.68;9.20;;;20.20;92.90;;;;;;5056623;28;20020;-85
2021/06/15 06:20:58;;;;;;;15.85;9.23;;;20.20;93.40;;;;;;5056181;28;20028;-88
2021/06/15 06:23:24;;;;;;;13.25;8.13;;;20.20;93.10;;;;;;5051864;28;20476;-86
2021/06/15 06:25:50;;;;;;;14.05;9.13;;;20.30;93.10;;;;;;5049966;28;20029;-86
2021/06/15 06:28:15;;;;;;;15.57;9.80;;;20.20;93.40;;;;;;5051444;28;20457;-85
2021/06/15 06:30:41;;;;;;;15.95;9.68;;;20.20;93.20;;;;;;5052089;28;20538;-84
2021/06/15 06:33:07;;;;;;;12.85;8.10;;;20.10;93.30;;;;;;5050904;28;20036;-85
2021/06/15 06:35:32;;;;;;;18.55;9.18;;;20.20;93.60;;;;;;5050638;28;20124;-85
2021/06/15 06:37:58;;;;;;;19.55;8.68;;;20.20;93.30;;;;;;5052079;28;20173;-86
2021/06/15 06:40:25;;;;;;;15.98;8.63;;;20.20;93.20;;;;;;5052798;28;20136;-85
2021/06/15 06:42:51;;;;;;;16.63;8.80;;;20.20;93.10;;;;;;5049717;28;20028;-85
2021/06/15 06:45:17;;;;;;;13.85;7.97;;;20.20;92.80;;;;;;5051475;28;20539;-86
2021/06/15 06:47:42;;;;;;;15.80;8.88;;;20.10;93.00;;;;;;5050838;28;20136;-85
2021/06/15 06:50:08;;;;;;;14.30;8.43;;;20.10;93.00;;;;;;5052533;28;20116;-85
2021/06/15 06:52:34;;;;;;;12.95;8.02;;;20.20;93.00;;;;;;5053785;28;20029;-84
2021/06/15 06:55:00;;;;;;;16.55;8.60;;;20.30;92.90;;;;;;5055195;28;20051;-85
2021/06/15 06:57:26;;;;;;;17.60;8.57;;;20.30;92.90;;;;;;5053673;28;20151;-84
2021/06/15 06:59:51;;;;;;;13.95;9.02;;;20.30;93.00;;;;;;5053051;28;20542;-84
2021/06/15 07:02:17;;;;;;;13.20;8.73;;;20.30;93.10;;;;;;5051982;28;20033;-84
2021/06/15 07:04:43;;;;;;;16.45;9.32;;;20.40;92.90;;;;;;5051541;28;20092;-85
2021/06/15 07:07:09;;;;;;;15.00;9.10;;;20.40;93.00;;;;;;5050227;28;20390;-85
2021/06/15 07:09:35;;;;;;;12.70;7.85;;;20.40;93.10;;;;;;5049683;28;20473;-85
2021/06/15 07:12:00;;;;;;;12.23;7.32;;;20.40;93.00;;;;;;5050488;28;20110;-85
2021/06/15 07:14:26;;;;;;;23.60;8.25;;;20.50;93.00;;;;;;5051781;28;20017;-85
2021/06/15 07:16:52;;;;;;;16.88;8.45;;;20.40;92.80;;;;;;5049385;28;20032;-85
2021/06/15 07:19:17;;;;;;;13.55;7.55;;;20.40;92.70;;;;;;5049682;28;20028;-85
2021/06/15 07:21:43;;;;;;;12.93;7.15;;;20.40;92.70;;;;;;5050568;28;20025;-86
2021/06/15 07:24:09;;;;;;;16.85;7.13;;;20.60;92.70;;;;;;5050124;28;20048;-84
2021/06/15 07:26:34;;;;;;;12.90;6.70;;;20.60;92.50;;;;;;5051973;28;20025;-85
2021/06/15 07:29:01;;;;;;;13.93;7.55;;;20.60;92.50;;;;;;5050645;28;20032;-89
2021/06/15 07:31:27;;;;;;;13.05;7.93;;;20.70;92.30;;;;;;5048898;28;20055;-88
2021/06/15 07:33:52;;;;;;;14.63;7.93;;;20.60;92.00;;;;;;5049093;28;20061;-88
2021/06/15 07:36:18;;;;;;;9.68;6.68;;;20.70;92.30;;;;;;5048903;28;20419;-86
2021/06/15 07:38:44;;;;;;;8.65;5.65;;;20.70;92.10;;;;;;5049055;28;20075;-88
2021/06/15 07:41:10;;;;;;;10.77;6.50;;;20.80;92.20;;;;;;5048507;28;20409;-90
2021/06/15 07:43:37;;;;;;;15.30;7.00;;;20.90;92.10;;;;;;5049525;28;20470;-85
2021/06/15 07:46:04;;;;;;;11.98;6.93;;;20.90;91.80;;;;;;5055021;28;20109;-86
2021/06/15 07:48:29;;;;;;;19.15;6.57;;;20.90;91.50;;;;;;5054223;28;20021;-84
2021/06/15 07:50:55;;;;;;;14.35;7.40;;;21.00;91.90;;;;;;5056224;28;20480;-82
2021/06/15 07:53:22;;;;;;;11.45;5.97;;;21.00;92.40;;;;;;5056870;28;20031;-84
2021/06/15 07:55:48;;;;;;;12.10;6.18;;;21.00;92.00;;;;;;5055966;28;20029;-85
2021/06/15 07:58:13;;;;;;;9.30;5.00;;;21.00;91.70;;;;;;5054816;28;20412;-84
2021/06/15 08:00:39;;;;;;;9.07;4.75;;;21.00;91.40;;;;;;5054037;28;20029;-85
2021/06/15 08:03:06;;;;;;;10.43;6.22;;;21.10;91.70;;;;;;5052230;28;20108;-88
2021/06/15 08:05:32;;;;;;;9.70;5.75;;;21.10;90.90;;;;;;5052988;28;20036;-84
2021/06/15 08:07:57;;;;;;;8.48;5.03;;;21.00;91.30;;;;;;5054002;28;20021;-84
2021/06/15 08:10:25;;;;;;;10.98;5.05;;;21.10;91.60;;;;;;5053339;28;20099;-86
2021/06/15 08:12:50;;;;;;;11.88;5.20;;;21.10;91.40;;;;;;5052356;28;20021;-84
2021/06/15 08:15:17;;;;;;;9.70;4.68;;;21.20;91.20;;;;;;5052129;28;20043;-84
2021/06/15 08:17:43;;;;;;;8.20;4.93;;;21.20;91.20;;;;;;5052257;28;20106;-86
2021/06/15 08:20:09;;;;;;;9.07;4.80;;;21.10;91.00;;;;;;5051088;28;20465;-84
2021/06/15 08:22:35;;;;;;;8.15;4.93;;;21.20;90.80;;;;;;5052151;28;20025;-84
2021/06/15 08:25:01;;;;;;;9.15;5.00;;;21.20;90.60;;;;;;5051766;28;20500;-85
2021/06/15 08:27:27;;;;;;;11.75;5.60;;;21.20;90.60;;;;;;5052288;28;20362;-83
2021/06/15 08:29:52;;;;;;;10.00;4.78;;;21.20;90.60;;;;;;5053343;28;20025;-85
2021/06/15 08:32:18;;;;;;;7.80;4.25;;;21.20;90.70;;;;;;5052473;28;20032;-85
2021/06/15 08:34:44;;;;;;;9.93;5.50;;;21.20;90.20;;;;;;5054229;28;20037;-83
2021/06/15 08:37:09;;;;;;;13.50;5.43;;;21.20;90.40;;;;;;5051699;28;20083;-83
2021/06/15 08:39:35;;;;;;;10.23;5.00;;;21.20;90.20;;;;;;5052896;28;20029;-83
2021/06/15 08:42:01;;;;;;;8.15;4.65;;;21.30;90.50;;;;;;5052075;28;20029;-83
2021/06/15 08:44:27;;;;;;;10.05;5.28;;;21.30;90.20;;;;;;5052112;28;20056;-84
2021/06/15 08:46:52;;;;;;;10.30;4.35;;;21.30;89.20;;;;;;5054665;28;20025;-87
2021/06/15 08:49:18;;;;;;;9.30;4.45;;;21.30;89.40;;;;;;5056795;28;20481;-88
2021/06/15 08:51:44;;;;;;;6.78;3.38;;;21.40;88.90;;;;;;5057541;28;20025;-87
2021/06/15 08:54:15;;;;;;;5.97;3.45;;;21.40;88.80;;;;;;5055802;28;20051;-83
2021/06/15 08:56:42;;;;;;;7.75;3.65;;;21.50;87.70;;;;;;5053538;28;20029;-83
2021/06/15 08:59:14;;;;;;;5.40;3.13;;;21.50;87.40;;;;;;5051782;28;20128;-82
2021/06/15 09:01:40;;;;;;;8.13;3.33;;;21.60;87.80;;;;;;5053840;28;20109;-84
2021/06/15 09:04:06;;;;;;;17.15;5.30;;;21.60;88.10;;;;;;5053634;28;20032;-87
2021/06/15 09:06:31;;;;;;;22.60;6.32;;;21.60;87.90;;;;;;5052298;28;20029;-84
2021/06/15 09:09:00;;;;;;;12.05;5.53;;;21.60;88.20;;;;;;5056741;28;20130;-82
2021/06/15 09:11:46;;;;;;;11.63;4.65;;;21.60;88.50;;;;;;5057146;28;20119;-84
2021/06/15 09:14:11;;;;;;;9.32;4.80;;;21.60;89.10;;;;;;5056061;28;20385;-84
2021/06/15 09:16:37;;;;;;;8.18;3.90;;;21.60;88.70;;;;;;5055009;28;20051;-84
2021/06/15 09:19:23;;;;;;;9.93;4.78;;;21.60;88.40;;;;;;5054641;28;20044;-84
2021/06/15 09:21:53;;;;;;;7.90;4.18;;;21.60;88.40;;;;;;5055282;28;20036;-84
2021/06/15 09:24:23;;;;;;;13.20;4.78;;;21.60;89.00;;;;;;5055303;28;20053;-83
2021/06/15 09:26:53;;;;;;;11.32;4.30;;;21.60;87.60;;;;;;5057282;28;20021;-83
2021/06/15 09:29:32;;;;;;;8.98;3.50;;;21.60;86.70;;;;;;5056176;28;20362;-84
2021/06/15 09:31:58;;;;;;;10.68;3.90;;;21.60;85.80;;;;;;5055641;28;20025;-84
2021/06/15 09:34:23;;;;;;;11.18;3.88;;;21.60;84.40;;;;;;5055790;28;20024;-84
2021/06/15 09:36:52;;;;;;;7.15;3.60;;;21.60;84.00;;;;;;5055735;28;20031;-87
2021/06/15 09:39:18;;;;;;;9.75;3.33;;;21.60;82.40;;;;;;5054258;28;20101;-83
2021/06/15 09:41:47;;;;;;;5.15;3.00;;;21.60;83.00;;;;;;5056123;28;20024;-90
2021/06/15 09:44:29;;;;;;;;;;;21.70;82.80;;;;;;5053690;28;20144;-83
2021/06/15 09:46:58;;;;;;;8.13;3.85;;;21.70;80.00;;;;;;5054740;28;20384;-84
2021/06/15 09:49:37;;;;;;;;;;;21.70;80.50;;;;;;5057168;28;20610;-84
2021/06/15 09:52:10;;;;;;;5.50;2.60;;;21.70;79.70;;;;;;5057414;28;20282;-84
2021/06/15 09:54:59;;;;;;;4.60;2.28;;;21.70;78.90;;;;;;5055981;28;20489;-84
2021/06/15 09:57:26;;;;;;;6.18;2.22;;;21.70;79.20;;;;;;5056570;28;20020;-84
2021/06/15 10:00:04;;;;;;;9.15;3.50;;;21.80;80.00;;;;;;5054962;28;20892;-84
2021/06/15 10:02:29;;;;;;;8.18;3.70;;;21.80;80.30;;;;;;5052626;28;20025;-84
2021/06/15 10:04:55;;;;;;;5.72;3.53;;;21.80;81.40;;;;;;5053310;28;20032;-85
2021/06/15 10:07:29;;;;;;;5.72;2.50;;;21.80;81.80;;;;;;5053342;28;20021;-85
2021/06/15 10:09:56;;;;;;;6.63;2.80;;;21.80;81.30;;;;;;5053663;28;20123;-84
2021/06/15 10:12:23;;;;;;;5.07;2.83;;;21.90;78.40;;;;;;5054932;28;20037;-83
2021/06/15 10:14:50;;;;;;;6.70;3.30;;;21.90;78.90;;;;;;5052948;28;20095;-84
2021/06/15 10:17:16;;;;;;;8.93;4.97;;;21.90;77.90;;;;;;5053592;28;20033;-83
2021/06/15 10:19:42;;;;;;;9.70;5.00;;;21.90;80.30;;;;;;5052853;28;20087;-85
2021/06/15 10:22:08;;;;;;;7.70;4.80;;;21.90;82.30;;;;;;5053595;28;20079;-83
2021/06/15 10:24:35;;;;;;;7.00;3.85;;;22.00;81.70;;;;;;5051642;28;20028;-83
2021/06/15 10:27:04;;;;;;;9.20;3.90;;;22.00;80.10;;;;;;5053252;28;20337;-84
2021/06/15 10:29:30;;;;;;;6.68;3.80;;;22.10;80.00;;;;;;5052723;28;20089;-84
2021/06/15 10:31:57;;;;;;;7.40;4.18;;;22.10;79.50;;;;;;5051379;28;20029;-84
2021/06/15 10:34:46;;;;;;;7.00;4.13;;;22.10;79.80;;;;;;5051668;28;20029;-84
2021/06/15 10:37:48;;;;;;;5.60;3.45;;;22.10;77.70;;;;;;5051480;28;20040;-85
2021/06/15 10:40:13;;;;;;;6.85;4.47;;;22.20;78.00;;;;;;4974613;28;20118;-83
2021/06/15 10:43:02;;;;;;;6.35;3.25;;;22.20;77.40;;;;;;5034894;28;20484;-83
2021/06/15 10:45:28;;;;;;;5.95;3.10;;;22.20;76.20;;;;;;5050626;28;20033;-86
2021/06/15 10:48:06;;;;;;;4.90;2.65;;;22.20;73.90;;;;;;5052585;28;20037;-81
2021/06/15 10:50:46;;;;;;;4.80;2.40;;;22.20;73.90;;;;;;5050127;28;20048;-86
2021/06/15 10:53:17;;;;;;;4.45;1.90;;;22.20;73.00;;;;;;5052189;28;20119;-87
2021/06/15 10:55:47;;;;;;;2.75;1.83;;;22.20;72.90;;;;;;5051661;28;20516;-86
2021/06/15 10:58:13;;;;;;;7.25;2.80;;;22.20;73.20;;;;;;5054617;28;20033;-82
2021/06/15 11:00:52;;;;;;;4.75;2.45;;;22.20;74.00;;;;;;5051385;28;20109;-81
2021/06/15 11:03:19;;;;;;;10.43;3.05;;;22.20;75.10;;;;;;5050458;28;20029;-84
2021/06/15 11:06:02;;;;;;;12.95;2.65;;;22.30;75.10;;;;;;5051454;28;20487;-82
2021/06/15 11:08:30;;;;;;;9.88;2.40;;;22.40;74.30;;;;;;5052225;28;20151;-83
2021/06/15 11:11:15;;;;;;;3.88;2.35;;;22.30;73.20;;;;;;5052063;28;20399;-82
2021/06/15 11:13:41;;;;;;;6.57;2.53;;;22.40;74.00;;;;;;5051329;28;20033;-82
2021/06/15 11:16:21;;;;;;;5.95;2.53;;;22.40;74.60;;;;;;5050767;28;20379;-81
2021/06/15 11:19:06;;;;;;;5.53;2.78;;;22.40;75.20;;;;;;5050800;28;20450;-83
2021/06/15 11:21:32;;;;;;;8.38;3.00;;;22.40;76.20;;;;;;5052557;28;20052;-82
2021/06/15 11:24:23;;;;;;;7.80;3.33;;;22.50;77.00;;;;;;5052789;28;20100;-86
2021/06/15 11:26:52;;;;;;;8.75;3.28;;;22.50;76.90;;;;;;5051022;28;20112;-81
2021/06/15 11:29:38;;;;;;;8.25;3.30;;;22.50;77.50;;;;;;5050376;28;20027;-81
2021/06/15 11:32:24;;;;;;;6.93;2.95;;;22.50;77.20;;;;;;5053652;28;20122;-83
2021/06/15 11:34:52;;;;;;;5.40;2.10;;;22.60;76.80;;;;;;5052931;28;20327;-83
2021/06/15 11:37:28;;;;;;;4.35;1.95;;;22.60;73.60;;;;;;5051825;28;20025;-85
2021/06/15 11:39:54;;;;;;;3.45;1.60;;;22.60;73.30;;;;;;5049383;28;20064;-84
2021/06/15 11:42:28;;;;;;;4.53;1.70;;;22.60;72.90;;;;;;5050807;28;20116;-82
2021/06/15 11:45:12;;;;;;;4.05;1.70;;;22.60;73.10;;;;;;5049709;28;20045;-83
2021/06/15 11:47:45;;;;;;;5.22;1.70;;;22.60;72.70;;;;;;5049494;28;20128;-83
2021/06/15 11:50:31;;;;;;;9.13;2.22;;;22.70;72.20;;;;;;5049726;28;20049;-84
2021/06/15 11:53:19;;;;;;;2.38;1.40;;;22.80;71.30;;;;;;5052202;28;20610;-83
2021/06/15 11:55:59;;;;;;;3.53;1.50;;;22.80;71.30;;;;;;5052817;28;20028;-84
2021/06/15 11:58:30;;;;;;;3.28;1.25;;;22.90;68.10;;;;;;5051824;28;20033;-84
2021/06/15 12:01:11;;;;;;;4.32;1.50;;;22.90;68.80;;;;;;5049321;28;20037;-84
2021/06/15 12:03:38;;;;;;;3.42;1.38;;;22.90;68.20;;;;;;5050414;28;20029;-82
2021/06/15 12:06:05;;;;;;;4.70;1.20;;;22.90;68.50;;;;;;5048768;28;20068;-83
2021/06/15 12:08:33;;;;;;;5.07;1.20;;;23.00;68.10;;;;;;5048881;28;20055;-83
2021/06/15 12:10:59;;;;;;;4.85;1.33;;;23.00;66.90;;;;;;5049433;28;20024;-83
2021/06/15 12:13:27;;;;;;;3.03;1.48;;;23.00;68.00;;;;;;5050280;28;20025;-83
2021/06/15 12:16:02;;;;;;;5.18;1.73;;;23.10;69.30;;;;;;5046972;28;20159;-83
2021/06/15 12:18:38;;;;;;;5.25;1.35;;;23.20;66.70;;;;;;5050024;28;20393;-83
2021/06/15 12:21:06;;;;;;;3.25;1.15;;;23.30;66.40;;;;;;5047701;28;20032;-84
2021/06/15 12:23:49;;;;;;;3.75;1.20;;;23.40;65.80;;;;;;5049849;28;20452;-83
2021/06/15 12:26:28;;;;;;;3.13;1.15;;;23.50;65.50;;;;;;5047987;28;20025;-83
2021/06/15 12:29:03;;;;;;;4.05;1.40;;;23.60;64.70;;;;;;5049012;28;20028;-83
2021/06/15 12:31:33;;;;;;;2.95;1.35;;;23.70;64.50;;;;;;5049772;28;20159;-83
2021/06/15 12:34:03;;;;;;;2.20;1.08;;;23.70;63.20;;;;;;5051721;28;20044;-84
2021/06/15 12:36:31;;;;;;;7.60;1.65;;;23.70;64.30;;;;;;5051408;28;20044;-83
2021/06/15 12:39:16;;;;;;;3.03;1.27;;;23.70;62.30;;;;;;5052801;28;20025;-83
2021/06/15 12:41:50;;;;;;;4.45;1.45;;;23.80;61.90;;;;;;5052012;28;20124;-83
2021/06/15 12:44:16;;;;;;;5.25;1.40;;;23.90;62.60;;;;;;5051476;28;20032;-83
2021/06/15 12:46:44;;;;;;;3.47;1.27;;;24.00;63.20;;;;;;5049989;28;20028;-83
2021/06/15 12:49:21;;;;;;;5.38;1.30;;;24.00;62.10;;;;;;5052258;28;20021;-83
2021/06/15 12:51:52;;;;;;;4.95;1.83;;;24.00;61.60;;;;;;5052602;28;20481;-83
2021/06/15 12:54:37;;;;;;;4.00;1.27;;;24.00;62.20;;;;;;5053378;28;20468;-82